Airfield :







YOU CAN JOIN US ON...

 
LOGIN :

Register | Disclaimer

   EN    FR    IT 

 









Legend :    VFR   Marginal VFR   IFR   Intensive IFR   Very Intensive IFR
Visi :
Ceiling :
>= 8 km
>= 3000ft
5 to 8 km
1000 to 3000 ft
1500m to 5 km
500 to 1000 ft
800 to 1500m
200 to 500 ft
< 800m
< 200 ft
Symbols :   Thunderstorms  Fog  Heavy snow  Heavy precipitations  Wind > 20 kt






- Airport Elevation : 522 ft
- IATA code : YBG


CYBG - CFB Bagotville

CURRENT METAR :
  • 230500Z 28006KT 25SM BKN035 02/M00 A2996 RMK SC6 SLP152

EXPIRED METARs :
  • 230400Z 28006KT 25SM BKN035 03/01 A2995 RMK SC6 SLP149
  • 230300Z 28006KT 25SM FEW030 BKN040 04/01 A2995 RMK SC2SC4 SLP150

TAF TAF CYBG
Valid from the 23 at 06:00 until the 24 at 06:00 UTC


230530Z 2306/2406 28008KT P6SM SCT020 BKN030 OVC160
TEMPO 2306/2318 BKN020 OVC030
FM231800 28008KT P6SM SCT020 OVC100
FM240000 28008KT P6SM SCT020 SCT100 RMK NXT FCST BY 231200Z
CZUL FIR / North America



MET'MAP, your aeronautical weather chart ! - Copyright ORBIFLY December 2007 - Disclaimer

ORBIFLY MET'MAP TEAM :

Programming & Development : Alexandra Zaïnal
Concept & original design : Baudouin d'Aumeries
Assistance for programming : Marc-Olivier Méhu
Technical & hardware support : Manuel Goepfert

Contact : metmap@orbifly.com




SOURCES & CREDITS :

   NOAA